Main page
METAR-TAF:

METAR-TAF

Airports :

Leipzig–Altenburg Airport

Altenburg, Germany

latitude: 50-58N, longitude: 012-30E, elevation: 195 m

Current weather observation

The report was made 44 minutes ago, at 08:20 UTC
Wind 5 kt from the North, varying between North/Northwest and North/Northeast
Temperature -4°C
Humidity 100%
Pressure 1031 hPa
Visibility: 1200 m
Broken clouds at a height of 300 ft
mist

METAR: EDAC 180820Z 36005KT 330V030 1200 R04/P2000N BR BKN003 M04/M04 Q1031

Time: 10:04 (09:04 UTC)

Forecast

The report was made 19 hours and 4 minutes ago, at 14:00 UTC
Forecast valid from 17 at 15 UTC to 17 at 24 UTC
Wind 7 kt from the Northeast
Visibility 10 km or more
no clouds below 1500 m and no cumulonimbus

TAF: EDAC 171400Z 1715/1724 05007KT CAVOK

Weather observations and forecasts of more than 4000 airports (METAR and TAF reports).

The available stations are represented by yellow and red dots on the map.

Hover mouse over dot to see the name of the station.

Then click to see weather observations and forecasts.

To change the map : click on the green buttons with a black cross to zoom in, on the green button with a dash to zoom out, or on the green arrows for adjacent maps.


METAR-TAF: